Observations for WASHINGTON NATIONAL, VA (DCA)

KDCA 201552Z 32012KT 10SM BKN250 22/11 A3026 RMK AO2 SLP246 T02220106   
KDCA 201452Z 35010KT 10SM BKN250 22/11 A3026 RMK AO2 SLP246 T02220111 51011 
KDCA 201352Z 32008KT 10SM BKN250 21/10 A3025 RMK AO2 SLP244 T02060100   
KDCA 201252Z 32010KT 10SM BKN250 19/10 A3024 RMK AO2 SLP240 T01940100   
KDCA 201152Z 00000KT 10SM BKN250 16/12 A3023 RMK AO2 SLP234 T01560122 10167 20128 52017 
KDCA 201052Z 00000KT 10SM BKN250 13/12 A3021 RMK AO2 SLP229 T01330122   
KDCA 200952Z 00000KT 10SM CLR 13/12 A3019 RMK AO2 SLP223 T01330117  
KDCA 200852Z 20004KT 10SM CLR 13/12 A3018 RMK AO2 SLP218 T01330122 53002
KDCA 200752Z 00000KT 10SM CLR 13/12 A3017 RMK AO2 SLP216 T01280117  
KDCA 200652Z 26003KT 10SM CLR 13/11 A3017 RMK AO2 SLP216 T01280111  
KDCA 200552Z 22004KT 10SM CLR 14/11 A3017 RMK AO2 SLP215 T01390106 10172 20133 50000
KDCA 200452Z 21004KT 10SM CLR 15/11 A3018 RMK AO2 SLP217 T01500106 402220094
KDCA 200352Z 19004KT 10SM CLR 15/12 A3018 RMK AO2 SLP217 T01500122  
KDCA 200252Z 21005KT 10SM FEW250 15/12 A3017 RMK AO2 SLP215 T01500117 51005 
KDCA 200152Z 23004KT 10SM FEW250 16/11 A3016 RMK AO2 SLP215 T01560106   
KDCA 200052Z 20004KT 10SM CLR 17/11 A3016 RMK AO2 SLP214 T01720111  
KDCA 192352Z 19006KT 10SM CLR 17/13 A3015 RMK AO2 SLP211 T01720128 10222 20172 55001
KDCA 192252Z 19008KT 10SM FEW250 18/12 A3015 RMK AO2 SLP209 T01830122   
KDCA 192152Z 21004KT 10SM SCT250 21/08 A3015 RMK AO2 SLP212 T02060078   
KDCA 192052Z 17008KT 10SM SCT250 22/11 A3016 RMK AO2 SLP212 T02170106 56019 
KDCA 191952Z 17009KT 10SM SCT250 22/11 A3017 RMK AO2 SLP217 T02170106   
KDCA 191852Z 17009KT 10SM FEW250 22/09 A3019 RMK AO2 SLP222 T02170094   
KDCA 191752Z 17009KT 10SM CLR 21/09 A3021 RMK AO2 SLP231 T02060089 10211 20100 58024
KDCA 191652Z 18009KT 10SM CLR 20/08 A3024 RMK AO2 SLP241 T02000078  
KDCA 191552Z 17008KT 10SM CLR 18/09 A3028 RMK AO2 SLP251 T01830094